Reynolds, Nebraska
Current Conditions -  °F | °C
As of 12:15 AM on Thursday 23 Oct 2014 (Local Time) from KHJH Reporting Station
Broken Clouds Broken Clouds  
Wind Chill: 60°   Ceiling: 3800
Heat Index: 60°   Visibility: 10mi
Dew Point: 57°   Wind: 6mph
Humidity: 89%   Direction: 180°S
Pressure: 30.05"   Gusts: NA
Location:  40.06°N, 97.34°W
Report Text: KHJH 230515Z AUTO 18005KT 10SM BKN038 BKN050 16/14 A3005 RMK AO2 T01580140
Loading
Personal Weather Stations






























Interactive Weather Map New forecast layout! Learn more

10-Day Weather Forecast

Advertisements
Track Severe Weather on mobile